createdAt,value
2017-11-22T00:01:30.512Z,2.35
2017-11-22T00:04:05.207Z,2.47
2017-11-22T00:06:39.679Z,2.60
2017-11-22T00:09:14.052Z,1.30
2017-11-22T00:11:49.249Z,2.00
2017-11-22T00:14:23.714Z,1.65
2017-11-22T00:16:58.179Z,1.80
2017-11-22T00:19:32.538Z,2.08
2017-11-22T00:22:07.841Z,1.75
2017-11-22T00:24:47.806Z,1.48
2017-11-22T00:27:22.950Z,2.00
2017-11-22T00:29:57.374Z,1.98
2017-11-22T00:32:31.896Z,1.83
2017-11-22T00:35:06.362Z,2.17
2017-11-22T00:37:40.904Z,1.90
2017-11-22T00:40:15.386Z,2.05
2017-11-22T00:42:49.822Z,2.00
2017-11-22T00:45:24.175Z,2.80
2017-11-22T00:47:58.601Z,2.58
2017-11-22T00:50:32.981Z,2.33
2017-11-22T00:53:07.429Z,3.08
2017-11-22T00:55:41.762Z,3.37
2017-11-22T00:58:16.246Z,2.83
2017-11-22T01:00:50.773Z,3.70
2017-11-22T01:03:25.204Z,3.80
2017-11-22T01:05:59.547Z,4.30
2017-11-22T01:08:33.925Z,4.70
2017-11-22T01:11:08.346Z,4.57
2017-11-22T01:13:42.733Z,4.15
2017-11-22T01:16:17.145Z,4.50
2017-11-22T01:18:51.537Z,4.60
2017-11-22T01:21:25.847Z,4.72
2017-11-22T01:24:00.209Z,4.95
2017-11-22T01:26:34.701Z,5.28
2017-11-22T01:29:09.173Z,5.93
2017-11-22T01:31:43.534Z,6.87
2017-11-22T01:34:17.816Z,6.57
2017-11-22T01:36:52.173Z,8.30
2017-11-22T01:39:27.406Z,7.35
2017-11-22T01:42:01.873Z,9.38
2017-11-22T01:44:36.239Z,10.27
2017-11-22T01:47:10.742Z,12.13
2017-11-22T01:49:45.094Z,12.90
2017-11-22T01:52:19.541Z,12.85
2017-11-22T01:54:53.929Z,15.93
2017-11-22T01:57:28.356Z,11.93
2017-11-22T02:00:02.966Z,14.93
2017-11-22T02:02:37.357Z,13.75
2017-11-22T02:05:11.752Z,15.77
2017-11-22T02:07:46.179Z,18.62
2017-11-22T02:10:20.617Z,16.70
2017-11-22T02:12:55.108Z,17.33
2017-11-22T02:15:29.431Z,18.00
2017-11-22T02:18:03.908Z,22.92
2017-11-22T02:20:38.394Z,20.80
2017-11-22T02:23:12.809Z,18.67
2017-11-22T02:25:47.361Z,24.02
2017-11-22T02:28:21.813Z,22.55
2017-11-22T02:30:56.314Z,26.35
2017-11-22T02:33:30.703Z,30.45
2017-11-22T02:36:05.254Z,25.95
2017-11-22T02:38:39.673Z,26.70
2017-11-22T02:41:14.126Z,24.77
2017-11-22T02:43:48.615Z,32.35
2017-11-22T02:46:23.839Z,33.90
2017-11-22T02:48:58.268Z,29.42
2017-11-22T02:51:32.620Z,27.67
2017-11-22T02:54:07.114Z,26.17
2017-11-22T02:56:41.751Z,24.92
2017-11-22T02:59:16.225Z,32.45
2017-11-22T03:01:50.621Z,24.15
2017-11-22T03:04:25.089Z,28.48
2017-11-22T03:06:59.605Z,36.42
2017-11-22T03:09:35.041Z,27.73
2017-11-22T03:12:09.374Z,31.20
2017-11-22T03:14:43.812Z,23.73
2017-11-22T03:17:19.161Z,28.45
2017-11-22T03:19:53.655Z,23.05
2017-11-22T03:22:28.057Z,30.15
2017-11-22T03:25:02.559Z,29.23
2017-11-22T03:27:37.065Z,18.12
2017-11-22T03:30:11.500Z,30.92
2017-11-22T03:32:45.909Z,23.77
2017-11-22T03:35:20.512Z,18.23
2017-11-22T03:37:55.080Z,23.33
2017-11-22T03:40:29.588Z,17.45
2017-11-22T03:43:04.065Z,13.15
2017-11-22T03:45:38.642Z,19.08
2017-11-22T03:48:15.979Z,19.35
2017-11-22T03:50:56.074Z,16.20
2017-11-22T03:53:37.002Z,18.58
2017-11-22T03:56:11.461Z,18.87
2017-11-22T03:58:45.944Z,17.73
2017-11-22T04:01:24.484Z,16.17
2017-11-22T04:03:59.614Z,14.23
2017-11-22T04:06:33.994Z,16.27
2017-11-22T04:09:08.549Z,16.85
2017-11-22T04:11:43.040Z,17.42
2017-11-22T04:14:17.605Z,13.43
2017-11-22T04:16:52.061Z,14.43
2017-11-22T04:22:18.177Z,16.10
2017-11-22T04:24:52.524Z,16.15
2017-11-22T04:27:26.998Z,10.20
2017-11-22T04:30:01.360Z,12.50
2017-11-22T04:32:35.903Z,15.10
2017-11-22T04:35:10.439Z,15.25
2017-11-22T04:37:44.840Z,15.23
2017-11-22T04:40:19.269Z,16.15
2017-11-22T04:42:53.812Z,15.15
2017-11-22T04:45:28.354Z,10.63
2017-11-22T04:48:02.884Z,13.60
2017-11-22T04:50:37.368Z,14.18
2017-11-22T04:53:11.788Z,14.52
2017-11-22T04:55:47.077Z,12.63
2017-11-22T04:58:21.511Z,16.55
2017-11-22T05:00:55.940Z,11.15
2017-11-22T05:03:30.341Z,8.70
2017-11-22T05:06:04.783Z,13.05
2017-11-22T05:08:39.364Z,14.23
2017-11-22T05:11:13.842Z,10.77
2017-11-22T05:13:48.377Z,11.35
2017-11-22T05:16:22.759Z,10.93
2017-11-22T05:18:57.260Z,9.90
2017-11-22T05:21:31.655Z,6.15
2017-11-22T05:24:06.163Z,7.97
2017-11-22T05:26:40.683Z,7.03
2017-11-22T05:29:15.102Z,13.10
2017-11-22T05:31:49.730Z,10.30
2017-11-22T05:34:24.252Z,7.68
2017-11-22T05:36:58.791Z,10.73
2017-11-22T05:39:33.300Z,11.40
2017-11-22T05:42:07.848Z,13.32
2017-11-22T05:44:43.158Z,16.05
2017-11-22T05:47:17.785Z,12.98
2017-11-22T05:49:52.737Z,11.73
2017-11-22T05:52:27.265Z,7.07
2017-11-22T05:55:01.885Z,9.77
2017-11-22T05:57:36.297Z,12.85
2017-11-22T06:00:10.821Z,14.40
2017-11-22T06:02:45.432Z,13.73
2017-11-22T06:05:20.021Z,13.32
2017-11-22T06:07:54.537Z,15.07
2017-11-22T06:10:28.917Z,10.98
2017-11-22T06:13:03.272Z,14.85
2017-11-22T06:15:38.503Z,13.38
2017-11-22T06:18:12.793Z,17.27
2017-11-22T06:20:47.189Z,9.38
2017-11-22T06:23:22.446Z,15.48
2017-11-22T06:25:56.775Z,16.67
2017-11-22T06:28:32.020Z,13.60
2017-11-22T06:31:09.375Z,16.08
2017-11-22T06:33:43.710Z,16.40
2017-11-22T06:36:18.139Z,6.75
2017-11-22T06:38:52.575Z,15.07
2017-11-22T06:41:27.125Z,15.05
2017-11-22T06:44:01.561Z,10.32
2017-11-22T06:46:35.948Z,13.10
2017-11-22T06:49:10.317Z,17.77
2017-11-22T06:51:44.679Z,11.00
2017-11-22T06:54:19.189Z,13.80
2017-11-22T06:56:53.576Z,16.65
2017-11-22T06:59:27.918Z,17.55
2017-11-22T07:02:02.425Z,15.75
2017-11-22T07:04:36.889Z,18.05
2017-11-22T07:07:11.972Z,17.37
2017-11-22T07:09:46.460Z,15.13
2017-11-22T07:12:21.632Z,12.30
2017-11-22T07:14:56.006Z,14.07
2017-11-22T07:17:30.460Z,15.20
2017-11-22T07:20:05.753Z,14.02
2017-11-22T07:22:40.174Z,17.87
2017-11-22T07:25:14.498Z,16.27
2017-11-22T07:27:49.687Z,13.25
2017-11-22T07:30:24.033Z,13.98
2017-11-22T07:33:00.261Z,11.23
2017-11-22T07:35:40.521Z,11.07
2017-11-22T07:38:14.935Z,16.77
2017-11-22T07:40:49.327Z,13.27
2017-11-22T07:43:23.825Z,13.82
2017-11-22T07:45:58.163Z,10.88
2017-11-22T07:48:32.554Z,9.30
2017-11-22T07:51:12.789Z,14.98
2017-11-22T07:53:47.147Z,10.23
2017-11-22T07:56:21.646Z,13.20
2017-11-22T07:58:56.091Z,10.95
2017-11-22T08:01:30.599Z,13.68
2017-11-22T08:04:10.679Z,15.15
2017-11-22T08:06:45.153Z,11.57
2017-11-22T08:09:19.611Z,14.95
2017-11-22T08:11:54.076Z,10.98
2017-11-22T08:14:28.512Z,9.13
2017-11-22T08:17:03.037Z,12.52
2017-11-22T08:19:38.241Z,13.77
2017-11-22T08:22:12.588Z,14.43
2017-11-22T08:24:47.013Z,7.97
2017-11-22T08:27:22.244Z,10.05
2017-11-22T08:29:56.624Z,12.23
2017-11-22T08:32:31.201Z,10.82
2017-11-22T08:35:05.701Z,10.35
2017-11-22T08:37:40.237Z,13.93
2017-11-22T08:40:14.674Z,12.90
2017-11-22T08:42:54.789Z,12.95
2017-11-22T08:45:29.120Z,14.05
2017-11-22T08:48:04.251Z,9.85
2017-11-22T08:50:41.544Z,12.75
2017-11-22T08:53:16.058Z,12.85
2017-11-22T08:55:56.106Z,11.93
2017-11-22T08:58:30.497Z,7.72
2017-11-22T09:01:04.970Z,9.80
2017-11-22T09:03:45.283Z,4.47
2017-11-22T09:06:25.468Z,13.70
2017-11-22T09:08:59.847Z,8.80
2017-11-22T09:11:34.326Z,10.68
2017-11-22T09:14:08.613Z,14.27
2017-11-22T09:16:42.977Z,14.77
2017-11-22T09:19:17.467Z,12.30
2017-11-22T09:21:51.773Z,10.27
2017-11-22T09:24:31.805Z,10.40
2017-11-22T09:30:12.639Z,8.55
2017-11-22T09:32:47.189Z,8.48
2017-11-22T09:35:21.645Z,6.97
2017-11-22T09:37:56.044Z,16.58
2017-11-22T09:40:30.361Z,13.73
2017-11-22T09:43:04.865Z,12.80
2017-11-22T09:45:39.408Z,16.23
2017-11-22T09:48:13.896Z,13.23
2017-11-22T09:50:48.408Z,13.73
2017-11-22T09:53:22.781Z,9.55
2017-11-22T09:55:57.156Z,15.20
2017-11-22T09:58:31.493Z,12.82
2017-11-22T10:01:05.947Z,12.63
2017-11-22T10:03:40.527Z,17.60
2017-11-22T10:06:15.022Z,8.13
2017-11-22T10:08:49.400Z,13.48
2017-11-22T10:11:23.908Z,12.23
2017-11-22T10:13:59.205Z,12.80
2017-11-22T10:16:33.740Z,8.98
2017-11-22T10:19:08.122Z,14.57
2017-11-22T10:21:42.496Z,11.93
2017-11-22T10:24:22.543Z,13.88
2017-11-22T10:26:56.904Z,11.98
2017-11-22T10:29:47.964Z,11.93
2017-11-22T10:32:32.286Z,12.88
2017-11-22T10:35:07.407Z,10.13
2017-11-22T10:37:41.734Z,15.43
2017-11-22T10:40:16.864Z,13.82
2017-11-22T10:42:51.700Z,13.45
2017-11-22T10:45:26.232Z,15.07
2017-11-22T10:48:00.721Z,11.80
2017-11-22T10:50:36.273Z,14.27
2017-11-22T10:53:10.717Z,10.20
2017-11-22T10:55:45.112Z,11.65
2017-11-22T10:58:19.633Z,8.77
2017-11-22T11:00:54.128Z,10.27
2017-11-22T11:03:28.738Z,8.45
2017-11-22T11:06:03.244Z,12.63
2017-11-22T11:08:37.698Z,7.72
2017-11-22T11:11:12.070Z,14.87
2017-11-22T11:13:46.590Z,13.50
2017-11-22T11:16:21.094Z,13.73
2017-11-22T11:18:55.576Z,11.63
2017-11-22T11:21:30.056Z,12.90
2017-11-22T11:24:04.535Z,7.53
2017-11-22T11:26:39.041Z,10.27
2017-11-22T11:29:13.378Z,10.88
2017-11-22T11:31:47.892Z,13.95
2017-11-22T11:34:22.385Z,10.55
2017-11-22T11:36:56.830Z,10.38
2017-11-22T11:39:31.157Z,12.07
2017-11-22T11:42:06.385Z,11.48
2017-11-22T11:44:40.756Z,6.80
2017-11-22T11:47:15.195Z,9.02
2017-11-22T11:49:49.524Z,9.90
2017-11-22T11:52:23.899Z,13.07
2017-11-22T11:54:59.104Z,9.77
2017-11-22T11:57:33.500Z,10.05
2017-11-22T12:00:08.005Z,6.82
2017-11-22T12:02:42.474Z,11.50
2017-11-22T12:05:17.039Z,9.32
2017-11-22T12:07:51.545Z,11.93
2017-11-22T12:10:26.098Z,12.37
2017-11-22T12:13:00.538Z,10.00
2017-11-22T12:15:35.017Z,9.02
2017-11-22T12:18:09.474Z,9.98
2017-11-22T12:20:43.928Z,11.70
2017-11-22T12:23:24.296Z,7.10
2017-11-22T12:25:59.520Z,9.50
2017-11-22T12:28:33.822Z,8.88
2017-11-22T12:31:08.290Z,7.47
2017-11-22T12:33:42.728Z,6.18
2017-11-22T12:36:17.233Z,11.93
2017-11-22T12:38:51.677Z,11.45
2017-11-22T12:41:26.224Z,9.10
2017-11-22T12:44:01.472Z,7.95
2017-11-22T12:46:35.843Z,9.43
2017-11-22T12:49:10.307Z,9.25
2017-11-22T12:51:44.606Z,6.97
2017-11-22T12:54:19.143Z,8.20
2017-11-22T12:56:53.729Z,13.65
2017-11-22T12:59:29.013Z,10.05
2017-11-22T13:02:03.513Z,15.73
2017-11-22T13:04:37.927Z,15.50
2017-11-22T13:07:12.333Z,16.98
2017-11-22T13:09:47.645Z,8.48
2017-11-22T13:12:22.090Z,8.52
2017-11-22T13:14:56.533Z,10.68
2017-11-22T13:17:31.861Z,14.80
2017-11-22T13:20:06.201Z,17.27
2017-11-22T13:22:40.680Z,27.23
2017-11-22T13:25:15.037Z,24.55
2017-11-22T13:27:49.488Z,20.42
2017-11-22T13:30:24.744Z,15.23
2017-11-22T13:32:59.156Z,26.23
2017-11-22T13:35:33.612Z,22.40
2017-11-22T13:38:08.077Z,22.67
2017-11-22T13:40:42.568Z,22.45
2017-11-22T13:43:17.181Z,28.60
2017-11-22T13:45:51.509Z,16.58
2017-11-22T13:48:25.982Z,29.83
2017-11-22T13:51:01.280Z,15.88
2017-11-22T13:53:38.800Z,23.17
2017-11-22T13:56:13.240Z,27.98
2017-11-22T13:58:47.696Z,30.88
2017-11-22T14:01:22.849Z,28.80
2017-11-22T14:03:57.272Z,24.15
2017-11-22T14:06:31.747Z,28.25
2017-11-22T14:09:06.220Z,27.37
2017-11-22T14:11:40.612Z,26.95
2017-11-22T14:14:15.079Z,33.80
2017-11-22T14:16:49.424Z,26.83
2017-11-22T14:19:24.849Z,32.60
2017-11-22T14:21:59.421Z,27.45
2017-11-22T14:24:33.895Z,24.25
2017-11-22T14:27:08.357Z,26.45
2017-11-22T14:29:42.804Z,23.92
2017-11-22T14:32:17.319Z,17.12
2017-11-22T14:34:51.653Z,26.00
2017-11-22T14:37:26.548Z,24.98
2017-11-22T14:40:04.411Z,18.48
2017-11-22T14:42:38.926Z,17.50
2017-11-22T14:45:13.347Z,28.73
2017-11-22T14:47:47.929Z,27.90
2017-11-22T14:50:22.307Z,29.98
2017-11-22T14:52:56.716Z,17.67
2017-11-22T14:55:31.226Z,28.70
2017-11-22T14:58:05.784Z,19.75
2017-11-22T15:00:40.293Z,14.20
2017-11-22T15:03:14.636Z,16.45
2017-11-22T15:05:49.182Z,17.48
2017-11-22T15:08:23.608Z,16.85
2017-11-22T15:10:58.175Z,27.95
2017-11-22T15:13:32.625Z,25.80
2017-11-22T15:16:06.976Z,19.23
2017-11-22T15:18:41.524Z,21.42
2017-11-22T15:21:15.840Z,24.17
2017-11-22T15:23:50.521Z,16.48
2017-11-22T15:26:25.892Z,17.62
2017-11-22T15:29:01.312Z,19.45
2017-11-22T15:31:35.773Z,22.15
2017-11-22T15:34:10.325Z,20.55
2017-11-22T15:36:45.049Z,20.75
2017-11-22T15:39:19.657Z,24.48
2017-11-22T15:41:54.221Z,21.20
2017-11-22T15:44:28.658Z,11.75
2017-11-22T15:47:03.039Z,17.80
2017-11-22T15:49:37.538Z,23.35
2017-11-22T15:52:12.072Z,17.10
2017-11-22T15:54:46.486Z,22.65
2017-11-22T15:57:20.954Z,14.18
2017-11-22T15:59:56.014Z,18.17
2017-11-22T16:02:30.338Z,15.68
2017-11-22T16:05:05.441Z,18.48
2017-11-22T16:07:39.944Z,18.02
2017-11-22T16:10:16.702Z,16.33
2017-11-22T16:12:51.333Z,10.20
2017-11-22T16:15:25.791Z,15.85
2017-11-22T16:18:00.351Z,17.08
2017-11-22T16:20:34.657Z,19.65
2017-11-22T16:23:09.133Z,14.00
2017-11-22T16:25:43.486Z,25.83
2017-11-22T16:28:17.949Z,25.00
2017-11-22T16:30:52.277Z,15.32
2017-11-22T16:33:26.767Z,20.37
2017-11-22T16:36:01.164Z,22.13
2017-11-22T16:38:35.710Z,23.98
2017-11-22T16:41:11.046Z,15.10
2017-11-22T16:43:45.542Z,24.17
2017-11-22T16:46:20.017Z,21.75
2017-11-22T16:48:54.476Z,22.95
2017-11-22T16:51:28.973Z,22.85
2017-11-22T16:54:03.462Z,20.33
2017-11-22T16:56:37.841Z,18.48
2017-11-22T16:59:12.305Z,21.48
2017-11-22T17:01:46.750Z,25.95
2017-11-22T17:04:21.469Z,24.42
2017-11-22T17:06:55.969Z,21.60
2017-11-22T17:09:30.438Z,22.80
2017-11-22T17:12:05.165Z,23.55
2017-11-22T17:14:39.479Z,17.55
2017-11-22T17:17:14.109Z,23.45
2017-11-22T17:19:48.408Z,20.83
2017-11-22T17:22:22.725Z,24.50
2017-11-22T17:24:57.219Z,19.62
2017-11-22T17:27:31.554Z,23.00
2017-11-22T17:30:06.037Z,22.40
2017-11-22T17:32:41.373Z,21.62
2017-11-22T17:35:15.855Z,28.10
2017-11-22T17:37:50.400Z,18.20
2017-11-22T17:40:24.839Z,24.52
2017-11-22T17:42:59.168Z,21.30
2017-11-22T17:45:33.561Z,25.77
2017-11-22T17:48:08.111Z,23.23
2017-11-22T17:50:42.559Z,16.83
2017-11-22T17:53:16.897Z,20.90
2017-11-22T17:55:51.351Z,23.77
2017-11-22T17:58:25.730Z,17.67
2017-11-22T18:01:00.929Z,19.30
2017-11-22T18:03:35.438Z,22.20
2017-11-22T18:06:10.026Z,19.95
2017-11-22T18:08:44.408Z,19.45
2017-11-22T18:11:18.969Z,19.40
2017-11-22T18:13:53.467Z,18.67
2017-11-22T18:16:27.862Z,25.62
2017-11-22T18:19:02.570Z,25.25
2017-11-22T18:21:36.942Z,21.65
2017-11-22T18:24:11.289Z,22.08
2017-11-22T18:26:45.602Z,25.90
2017-11-22T18:29:20.776Z,20.88
2017-11-22T18:31:56.253Z,21.83
2017-11-22T18:34:30.788Z,20.35
2017-11-22T18:37:05.308Z,22.90
2017-11-22T18:39:40.404Z,16.12
2017-11-22T18:42:14.693Z,19.75
2017-11-22T18:47:30.753Z,24.10
2017-11-22T18:50:05.273Z,21.65
2017-11-22T18:52:39.804Z,23.00
2017-11-22T18:55:14.300Z,24.33
2017-11-22T18:57:48.688Z,22.75
2017-11-22T19:00:23.264Z,20.15
2017-11-22T19:02:57.629Z,21.95
2017-11-22T19:05:32.094Z,16.12
2017-11-22T19:08:07.244Z,19.25
2017-11-22T19:10:41.665Z,15.85
2017-11-22T19:13:16.122Z,19.27
2017-11-22T19:15:51.083Z,13.02
2017-11-22T19:18:25.548Z,19.58
2017-11-22T19:20:59.896Z,21.42
2017-11-22T19:23:34.278Z,21.15
2017-11-22T19:26:08.732Z,18.30
2017-11-22T19:28:43.265Z,18.02
2017-11-22T19:31:17.634Z,18.33
2017-11-22T19:33:58.289Z,18.58
2017-11-22T19:36:32.930Z,21.48
2017-11-22T19:39:07.290Z,14.25
2017-11-22T19:41:41.766Z,13.32
2017-11-22T19:44:16.027Z,17.62
2017-11-22T19:46:50.381Z,14.18
2017-11-22T19:49:26.855Z,12.43
2017-11-22T19:52:01.769Z,14.27
2017-11-22T19:54:37.238Z,16.70
2017-11-22T19:57:11.621Z,16.12
2017-11-22T19:59:46.079Z,18.90
2017-11-22T20:02:20.390Z,18.23
2017-11-22T20:04:54.872Z,17.58
2017-11-22T20:07:41.941Z,17.40
2017-11-22T20:10:17.116Z,16.10
2017-11-22T20:12:51.606Z,15.88
2017-11-22T20:15:26.081Z,15.75
2017-11-22T20:18:00.626Z,16.02
2017-11-22T20:20:35.849Z,16.05
2017-11-22T20:23:10.744Z,14.35
2017-11-22T20:25:45.194Z,11.25
2017-11-22T20:28:19.721Z,14.15
2017-11-22T20:30:54.145Z,14.02
2017-11-22T20:33:28.651Z,16.20
2017-11-22T20:36:03.093Z,15.15
2017-11-22T20:38:37.577Z,13.40
2017-11-22T20:41:12.072Z,15.38
2017-11-22T20:43:46.396Z,14.63
2017-11-22T20:46:20.805Z,14.25
2017-11-22T20:48:55.283Z,16.55
2017-11-22T20:51:29.593Z,14.82
2017-11-22T20:54:04.822Z,14.30
2017-11-22T20:56:40.051Z,14.40
2017-11-22T20:59:14.437Z,14.07
2017-11-22T21:01:48.922Z,15.27
2017-11-22T21:04:23.260Z,14.87
2017-11-22T21:06:57.716Z,14.90
2017-11-22T21:09:32.309Z,15.57
2017-11-22T21:12:06.711Z,14.80
2017-11-22T21:14:41.012Z,15.38
2017-11-22T21:17:15.520Z,14.57
2017-11-22T21:19:50.033Z,13.85
2017-11-22T21:22:24.357Z,13.55
2017-11-22T21:24:58.761Z,12.82
2017-11-22T21:27:33.126Z,12.70
2017-11-22T21:30:07.500Z,12.30
2017-11-22T21:32:41.969Z,14.30
2017-11-22T21:35:16.509Z,12.68
2017-11-22T21:37:51.123Z,12.70
2017-11-22T21:40:25.544Z,13.10
2017-11-22T21:43:00.744Z,12.82
2017-11-22T21:45:35.252Z,13.02
2017-11-22T21:48:09.597Z,12.15
2017-11-22T21:50:44.014Z,12.05
2017-11-22T21:53:18.463Z,11.43
2017-11-22T21:55:52.861Z,10.63
2017-11-22T21:58:27.216Z,10.73
2017-11-22T22:01:01.661Z,12.40
2017-11-22T22:03:36.058Z,7.87
2017-11-22T22:06:11.692Z,10.88
2017-11-22T22:08:46.101Z,11.73
2017-11-22T22:11:20.583Z,11.88
2017-11-22T22:13:55.167Z,10.40
2017-11-22T22:16:29.969Z,9.73
2017-11-22T22:19:04.719Z,9.93
2017-11-22T22:21:39.143Z,8.55
2017-11-22T22:24:13.536Z,9.23
2017-11-22T22:26:48.086Z,8.85
2017-11-22T22:29:22.469Z,7.10
2017-11-22T22:31:56.957Z,10.18
2017-11-22T22:34:31.391Z,9.48
2017-11-22T22:37:05.815Z,9.35
2017-11-22T22:39:40.246Z,9.57
2017-11-22T22:42:14.749Z,10.05
2017-11-22T22:44:49.232Z,9.18
2017-11-22T22:47:23.792Z,8.57
2017-11-22T22:49:58.108Z,8.85
2017-11-22T22:52:32.473Z,7.90
2017-11-22T22:55:07.628Z,7.78
2017-11-22T22:57:41.976Z,9.15
2017-11-22T23:03:19.866Z,8.40
2017-11-22T23:05:54.402Z,7.95
2017-11-22T23:08:28.693Z,8.95
2017-11-22T23:11:03.200Z,7.65
2017-11-22T23:13:37.627Z,8.20
2017-11-22T23:16:12.148Z,8.30
2017-11-22T23:18:46.570Z,7.85
2017-11-22T23:21:21.140Z,7.93
2017-11-22T23:23:55.595Z,7.60
2017-11-22T23:26:30.064Z,8.02
2017-11-22T23:29:04.453Z,7.45
2017-11-22T23:31:38.898Z,7.68
2017-11-22T23:34:13.361Z,7.10
2017-11-22T23:36:47.829Z,6.90
2017-11-22T23:39:22.888Z,6.18
2017-11-22T23:41:57.427Z,6.62
2017-11-22T23:44:31.826Z,6.80
2017-11-22T23:47:06.117Z,5.90
2017-11-22T23:49:40.555Z,6.30
2017-11-22T23:52:15.009Z,7.18
2017-11-22T23:54:49.473Z,7.00
2017-11-22T23:57:24.733Z,4.57
2017-11-22T23:59:59.230Z,6.00
